Time;durP1;ratioP1;P1;durP2;ratioP2;P2;SDS_P1;SDS_P2;PMS_P1;PMS_P2;Temp;Humidity;BMP_temperature;BMP_pressure;BME280_temperature;BME280_humidity;BME280_pressure;Samples;Min_cycle;Max_cycle;Signal;HPM_P1;HPM_P2
2024/01/29 00:02:22;;;;;;;9.40;4.43;;;2.30;99.90;;;1.34;100.00;98441.25;5027841;28;20025;-36
2024/01/29 00:04:48;;;;;;;5.78;3.88;;;2.30;99.90;;;1.43;100.00;98455.25;5030575;28;20039;-36
2024/01/29 00:07:13;;;;;;;9.52;4.25;;;2.30;99.90;;;1.40;100.00;98455.19;5031164;28;20474;-36
2024/01/29 00:09:39;;;;;;;7.60;3.70;;;2.30;99.90;;;1.39;100.00;98458.66;5026803;28;20878;-36
2024/01/29 00:12:05;;;;;;;6.82;4.03;;;2.30;99.90;;;1.33;100.00;98460.31;5019975;28;20901;-36
2024/01/29 00:14:31;;;;;;;9.80;4.75;;;2.20;99.90;;;1.29;100.00;98458.50;5020974;28;20033;-36
2024/01/29 00:16:58;;;;;;;9.73;4.88;;;2.20;99.90;;;1.23;100.00;98448.00;5023399;28;20166;-36
2024/01/29 00:19:23;;;;;;;8.07;4.03;;;2.20;99.90;;;1.30;100.00;98462.84;5021637;28;20160;-35
2024/01/29 00:21:50;;;;;;;7.50;4.20;;;2.20;99.90;;;1.33;100.00;98460.31;5022801;28;20415;-36
2024/01/29 00:24:16;;;;;;;6.10;3.60;;;2.20;99.90;;;1.32;100.00;98463.75;5042758;22;20093;-34
2024/01/29 00:26:41;;;;;;;7.13;3.80;;;2.20;99.90;;;1.31;100.00;98461.09;5054389;28;20033;-34
2024/01/29 00:29:07;;;;;;;7.50;3.95;;;2.20;99.90;;;1.25;100.00;98461.88;5049460;28;20052;-34
2024/01/29 00:31:33;;;;;;;5.55;3.58;;;2.20;99.90;;;1.19;100.00;98451.41;5043506;28;20055;-34
2024/01/29 00:33:59;;;;;;;5.93;3.47;;;2.20;99.90;;;1.18;100.00;98456.56;5045764;28;20093;-34
2024/01/29 00:36:24;;;;;;;5.70;3.42;;;2.10;99.90;;;1.13;100.00;98459.97;5044595;28;20037;-34
2024/01/29 00:38:50;;;;;;;6.38;3.33;;;2.00;99.90;;;1.10;100.00;98456.44;5023043;28;20037;-34
2024/01/29 00:41:16;;;;;;;5.72;3.53;;;2.00;99.90;;;0.95;100.00;98436.25;5045156;28;20233;-35
2024/01/29 00:43:41;;;;;;;6.05;4.03;;;1.90;99.90;;;0.97;100.00;98441.47;5055473;28;20540;-35
2024/01/29 00:46:07;;;;;;;5.63;3.47;;;1.80;99.90;;;0.92;100.00;98450.06;5058239;28;20480;-35
2024/01/29 00:48:33;;;;;;;4.78;3.58;;;1.80;99.90;;;0.79;100.00;98427.31;5065064;28;20036;-35
2024/01/29 00:51:01;;;;;;;5.55;3.33;;;1.70;99.90;;;0.83;100.00;98446.44;5060190;28;20086;-35
2024/01/29 00:53:27;;;;;;;6.32;3.55;;;1.70;99.90;;;0.74;100.00;98447.13;5060513;28;20040;-35
2024/01/29 00:55:53;;;;;;;6.10;3.60;;;1.70;99.90;;;0.69;100.00;98433.19;5063233;28;20645;-35
2024/01/29 00:58:20;;;;;;;6.13;3.47;;;1.60;99.90;;;0.56;100.00;98424.28;5065682;28;20035;-35
2024/01/29 01:00:47;;;;;;;7.28;3.60;;;1.60;99.90;;;0.61;100.00;98439.94;5063176;28;20039;-35
2024/01/29 01:03:14;;;;;;;6.13;3.53;;;1.50;99.90;;;0.58;100.00;98443.38;5064910;28;20036;-35
2024/01/29 01:05:40;;;;;;;6.95;3.78;;;1.50;99.90;;;0.54;100.00;98442.44;5062470;28;20070;-35
2024/01/29 01:08:06;;;;;;;5.40;3.70;;;1.50;99.90;;;0.51;100.00;98447.56;5051610;28;20036;-35
2024/01/29 01:10:32;;;;;;;6.68;3.95;;;1.40;99.90;;;0.49;100.00;98449.25;5035630;28;20025;-35
2024/01/29 01:12:58;;;;;;;8.48;3.63;;;1.40;99.90;;;0.48;100.00;98444.88;5047519;28;20401;-35
2024/01/29 01:15:23;;;;;;;8.65;4.15;;;1.40;99.90;;;0.44;100.00;98443.09;5049593;28;20040;-35
2024/01/29 01:17:49;;;;;;;6.22;3.70;;;1.40;99.90;;;0.47;100.00;98452.66;5045545;28;20158;-35
2024/01/29 01:20:15;;;;;;;5.55;3.00;;;1.40;99.90;;;0.44;100.00;98455.19;5050480;28;20457;-35
2024/01/29 01:22:40;;;;;;;6.13;3.60;;;1.40;99.90;;;0.44;100.00;98455.19;5055684;28;20033;-35
2024/01/29 01:25:07;;;;;;;5.13;3.38;;;1.40;99.90;;;0.40;100.00;98451.66;5057745;28;20032;-35
2024/01/29 01:27:33;;;;;;;5.07;3.20;;;1.30;99.90;;;0.42;100.00;98446.50;5055255;28;20063;-35
2024/01/29 01:29:59;;;;;;;8.35;4.28;;;1.40;99.90;;;0.38;100.00;98446.44;5054863;28;20488;-35
2024/01/29 01:32:24;;;;;;;7.40;4.25;;;1.30;99.90;;;0.37;100.00;98456.78;5056675;28;20045;-35
2024/01/29 01:34:50;;;;;;;10.48;3.58;;;1.30;99.90;;;0.37;100.00;98454.19;5058362;28;20481;-35
2024/01/29 01:37:16;;;;;;;6.22;3.65;;;1.30;99.90;;;0.32;100.00;98453.22;5061426;28;20364;-35
2024/01/29 01:39:41;;;;;;;5.60;3.10;;;1.30;99.90;;;0.35;100.00;98451.56;5054731;28;20429;-35
2024/01/29 01:42:08;;;;;;;4.78;3.05;;;1.30;99.90;;;0.44;100.00;98456.06;5060792;28;20396;-35
2024/01/29 01:44:33;;;;;;;4.82;3.25;;;1.30;99.90;;;0.49;100.00;98445.78;5056981;28;20032;-35
2024/01/29 01:47:00;;;;;;;5.57;2.90;;;1.40;99.90;;;0.59;100.00;98447.69;5037239;28;20032;-35
2024/01/29 01:49:27;;;;;;;6.40;3.15;;;1.40;99.90;;;0.62;100.00;98452.09;5055429;28;20289;-35
2024/01/29 01:51:53;;;;;;;5.30;3.03;;;1.50;99.90;;;0.61;100.00;98445.13;5039177;28;20040;-35
2024/01/29 01:54:20;;;;;;;4.40;3.00;;;1.50;99.90;;;0.57;100.00;98445.09;5057843;28;20028;-35
2024/01/29 01:56:48;;;;;;;5.60;3.00;;;1.50;99.90;;;0.52;100.00;98451.91;5058022;28;20197;-35
2024/01/29 01:59:13;;;;;;;4.40;3.13;;;1.40;99.90;;;0.49;100.00;98449.25;5039392;28;20032;-35
2024/01/29 02:01:39;;;;;;;5.55;3.33;;;1.40;99.90;;;0.47;100.00;98448.34;5048967;28;20044;-35
2024/01/29 02:04:05;;;;;;;7.13;3.55;;;1.40;99.90;;;0.35;100.00;98433.38;5059014;28;20361;-35
2024/01/29 02:06:31;;;;;;;4.75;3.22;;;1.40;99.90;;;0.37;100.00;98449.84;5058688;28;20128;-35
2024/01/29 02:08:57;;;;;;;5.75;3.33;;;1.30;99.90;;;0.40;100.00;98446.47;5041853;28;20024;-35
2024/01/29 02:11:24;;;;;;;5.85;3.63;;;1.30;99.90;;;0.38;100.00;98454.22;5058644;28;20407;-35
2024/01/29 02:13:49;;;;;;;5.43;3.30;;;1.30;99.90;;;0.36;100.00;98448.13;5057829;28;20052;-35
2024/01/29 02:16:15;;;;;;;6.20;3.42;;;1.30;99.90;;;0.38;100.00;98449.03;5055541;28;20028;-35
2024/01/29 02:18:41;;;;;;;5.82;3.22;;;1.30;99.90;;;0.40;100.00;98451.66;5054797;28;20094;-35
2024/01/29 02:21:07;;;;;;;5.47;3.42;;;1.30;99.90;;;0.42;100.00;98444.78;5053353;28;20451;-35
2024/01/29 02:23:32;;;;;;;5.85;3.15;;;1.30;99.90;;;0.35;100.00;98429.94;5040045;28;20089;-35
2024/01/29 02:25:58;;;;;;;5.43;3.15;;;1.30;99.90;;;0.44;100.00;98442.22;5056633;28;20553;-35
2024/01/29 02:28:25;;;;;;;6.50;3.42;;;1.40;99.90;;;0.44;100.00;98440.50;5057806;28;20028;-35
2024/01/29 02:30:51;;;;;;;6.07;3.72;;;1.30;99.90;;;0.45;100.00;98447.44;5051163;28;20032;-35
2024/01/29 02:33:17;;;;;;;7.22;3.42;;;1.40;99.90;;;0.36;100.00;98429.09;5053839;28;20040;-35
2024/01/29 02:35:45;;;;;;;5.82;3.40;;;1.40;99.90;;;0.40;100.00;98438.69;5056808;28;20036;-35
2024/01/29 02:38:11;;;;;;;6.57;3.80;;;1.30;99.90;;;0.37;100.00;98436.88;5052176;28;20505;-35
2024/01/29 02:40:37;;;;;;;5.60;3.65;;;1.30;99.90;;;0.37;100.00;98438.63;5053057;28;20075;-35
2024/01/29 02:43:03;;;;;;;6.47;3.80;;;1.30;99.90;;;0.34;100.00;98438.53;5052113;28;20086;-35
2024/01/29 02:45:29;;;;;;;5.55;3.17;;;1.30;99.90;;;0.29;100.00;98432.41;5049887;28;20194;-35
2024/01/29 02:47:54;;;;;;;6.10;3.35;;;1.20;99.90;;;0.25;100.00;98430.56;5049594;28;20779;-35
2024/01/29 02:50:22;;;;;;;4.88;3.30;;;1.20;99.90;;;0.23;100.00;98435.72;5050810;28;20055;-35
2024/01/29 02:52:48;;;;;;;6.18;3.38;;;1.20;99.90;;;0.18;100.00;98437.38;5055438;28;20107;-35
2024/01/29 02:55:14;;;;;;;5.28;3.03;;;1.10;99.90;;;0.16;100.00;98437.34;5049954;28;20029;-35
2024/01/29 02:57:40;;;;;;;5.38;3.10;;;1.10;99.90;;;0.10;100.00;98421.63;5050172;28;20426;-35
2024/01/29 03:00:06;;;;;;;5.68;3.00;;;1.10;99.90;;;0.18;100.00;98434.78;5048438;28;20036;-35
2024/01/29 03:02:32;;;;;;;5.95;3.25;;;1.10;99.90;;;0.11;100.00;98418.22;5050871;28;20109;-35
2024/01/29 03:04:57;;;;;;;4.68;3.10;;;1.20;99.90;;;0.23;100.00;98432.25;5035128;28;20049;-35
2024/01/29 03:07:23;;;;;;;6.82;3.22;;;1.20;99.90;;;0.22;100.00;98438.31;5045691;28;20044;-35
2024/01/29 03:09:49;;;;;;;5.25;3.25;;;1.20;99.90;;;0.23;100.00;98438.31;5043961;28;20562;-35
2024/01/29 03:12:15;;;;;;;6.03;3.20;;;1.20;99.90;;;0.19;100.00;98437.38;5049120;28;20037;-35
2024/01/29 03:14:41;;;;;;;6.15;3.67;;;1.10;99.90;;;0.18;100.00;98427.88;5046796;28;20516;-35
2024/01/29 03:17:07;;;;;;;7.13;3.97;;;1.10;99.90;;;0.09;100.00;98419.91;5048776;28;20167;-35
2024/01/29 03:19:33;;;;;;;6.20;3.55;;;1.10;99.90;;;0.13;100.00;98434.69;5046737;28;20493;-35
2024/01/29 03:21:59;;;;;;;6.30;3.72;;;1.10;99.90;;;0.11;100.00;98431.19;5043069;28;20443;-35
2024/01/29 03:24:24;;;;;;;6.53;4.20;;;1.00;99.90;;;0.09;100.00;98431.97;5046270;28;20032;-35
2024/01/29 03:26:50;;;;;;;7.95;4.43;;;1.00;99.90;;;0.08;100.00;98431.09;5047850;28;20036;-35
2024/01/29 03:29:16;;;;;;;5.53;3.55;;;1.00;99.90;;;0.07;100.00;98429.38;5045732;28;20457;-35
2024/01/29 03:31:41;;;;;;;6.13;3.47;;;1.00;99.90;;;0.02;100.00;98419.72;5047637;28;20058;-35
2024/01/29 03:34:08;;;;;;;6.90;3.83;;;1.00;99.90;;;0.08;100.00;98430.25;5047560;28;20040;-35
2024/01/29 03:36:33;;;;;;;6.50;3.65;;;1.00;99.90;;;0.10;100.00;98423.38;5047550;28;20512;-34
2024/01/29 03:38:59;;;;;;;5.15;3.33;;;1.00;99.90;;;0.14;100.00;98427.75;5041660;28;20036;-35
2024/01/29 03:41:26;;;;;;;7.53;3.35;;;1.10;99.90;;;0.15;100.00;98425.19;5031109;28;20386;-35
2024/01/29 03:43:51;;;;;;;6.20;3.38;;;1.00;99.90;;;0.15;100.00;98419.16;5043728;28;20036;-35
2024/01/29 03:46:17;;;;;;;5.50;3.05;;;1.10;99.90;;;0.18;100.00;98420.09;5046620;28;20081;-35
2024/01/29 03:48:43;;;;;;;6.82;3.53;;;1.10;99.90;;;0.20;100.00;98435.69;5047443;28;20496;-35
2024/01/29 03:51:09;;;;;;;5.78;3.60;;;1.10;99.90;;;0.19;100.00;98429.59;5047190;28;20275;-35
2024/01/29 03:53:35;;;;;;;5.63;3.13;;;1.10;99.90;;;0.22;100.00;98433.13;5027419;28;20029;-35
2024/01/29 03:56:00;;;;;;;7.63;3.38;;;1.10;99.90;;;0.21;100.00;98432.22;5037678;28;20586;-35
2024/01/29 03:58:26;;;;;;;5.65;3.13;;;1.10;99.90;;;0.18;100.00;98435.66;5046549;28;20076;-36
2024/01/29 04:00:52;;;;;;;5.95;3.10;;;1.10;99.90;;;0.11;100.00;98443.28;5043890;28;20066;-35
2024/01/29 04:03:17;;;;;;;6.15;3.80;;;1.10;99.90;;;0.04;100.00;98437.09;5039476;28;20547;-35
2024/01/29 04:05:46;;;;;;;6.43;3.58;;;1.00;99.90;;;0.02;100.00;98433.59;5040794;28;20082;-35
2024/01/29 04:08:12;;;;;;;5.05;3.33;;;1.00;99.90;;;0.02;100.00;98436.19;5043302;28;20039;-35
2024/01/29 04:10:38;;;;;;;5.95;3.50;;;0.90;99.90;;;-0.01;100.00;98439.56;5046221;28;20037;-35
2024/01/29 04:13:03;;;;;;;5.95;3.28;;;0.90;99.90;;;-0.05;100.00;98427.38;5045586;28;20218;-35
2024/01/29 04:15:29;;;;;;;5.93;3.50;;;0.90;99.90;;;-0.06;100.00;98427.34;5045400;28;20031;-35
2024/01/29 04:17:55;;;;;;;7.72;4.28;;;0.90;99.90;;;-0.11;100.00;98426.34;5041467;28;20152;-35
2024/01/29 04:20:21;;;;;;;9.27;5.10;;;0.80;99.90;;;-0.12;100.00;98429.81;5050925;28;20029;-35
2024/01/29 04:22:46;;;;;;;9.13;5.63;;;0.80;99.90;;;-0.16;100.00;98422.78;5044622;28;20056;-36
2024/01/29 04:25:12;;;;;;;9.02;4.97;;;0.80;99.90;;;-0.14;100.00;98428.88;5050977;28;20277;-35
2024/01/29 04:27:38;;;;;;;10.63;5.57;;;0.80;99.90;;;-0.17;100.00;98432.28;5052809;28;20061;-35
2024/01/29 04:30:05;;;;;;;10.45;5.78;;;0.80;99.90;;;-0.17;100.00;98423.66;5051870;28;20036;-35
2024/01/29 04:32:30;;;;;;;10.23;5.40;;;0.70;99.90;;;-0.17;100.00;98431.44;5052628;28;20021;-35
2024/01/29 04:34:56;;;;;;;10.00;6.03;;;0.70;99.90;;;-0.18;100.00;98430.53;5053381;28;20469;-35
2024/01/29 04:37:23;;;;;;;8.60;5.45;;;0.70;99.90;;;-0.17;100.00;98429.69;5051357;28;20036;-35
2024/01/29 04:39:49;;;;;;;9.13;4.70;;;0.70;99.90;;;-0.17;100.00;98428.84;5052245;28;20047;-35
2024/01/29 04:42:15;;;;;;;8.68;4.50;;;0.70;99.90;;;-0.16;100.00;98428.88;5052888;28;20029;-35
2024/01/29 04:44:40;;;;;;;5.78;3.80;;;0.70;99.90;;;-0.22;100.00;98424.41;5049994;28;20562;-35
2024/01/29 04:47:06;;;;;;;7.53;4.20;;;0.80;99.90;;;-0.14;100.00;98439.25;5044675;28;20048;-35
2024/01/29 04:49:32;;;;;;;7.65;4.38;;;0.80;99.90;;;-0.14;100.00;98434.97;5047780;28;20079;-35
2024/01/29 04:51:58;;;;;;;5.72;3.72;;;0.80;99.90;;;-0.14;100.00;98437.56;5042088;28;20033;-36
2024/01/29 04:54:23;;;;;;;4.38;3.13;;;0.80;99.90;;;-0.28;100.00;98410.44;5043318;28;20158;-35
2024/01/29 04:56:49;;;;;;;5.88;3.50;;;0.70;99.90;;;-0.13;100.00;98434.09;5045259;28;20032;-35
2024/01/29 04:59:15;;;;;;;5.50;3.20;;;0.70;99.90;;;-0.13;100.00;98444.47;5044741;28;20431;-35
2024/01/29 05:01:40;;;;;;;6.60;3.67;;;0.80;99.90;;;-0.10;100.00;98438.50;5023196;28;20111;-35
2024/01/29 05:04:06;;;;;;;5.25;3.35;;;0.80;99.90;;;-0.05;100.00;98435.16;5041645;28;20468;-35
2024/01/29 05:06:32;;;;;;;6.22;3.33;;;0.90;99.90;;;-0.01;100.00;98433.50;5049100;28;20060;-35
2024/01/29 05:08:57;;;;;;;5.25;3.25;;;0.90;99.90;;;0.03;100.00;98437.91;5043284;28;20642;-35
2024/01/29 05:11:23;;;;;;;5.22;2.80;;;0.90;99.90;;;0.07;100.00;98439.75;5046420;28;20116;-35
2024/01/29 05:13:49;;;;;;;5.35;2.75;;;1.00;99.90;;;0.16;100.00;98441.63;5047287;28;20074;-35
2024/01/29 05:16:15;;;;;;;5.38;2.83;;;1.00;99.90;;;0.24;100.00;98452.19;5043907;28;20028;-35
2024/01/29 05:18:41;;;;;;;4.55;2.90;;;1.10;99.90;;;0.29;100.00;98454.03;5043476;28;20431;-35
2024/01/29 05:21:07;;;;;;;6.13;2.78;;;1.20;99.90;;;0.28;100.00;98439.28;5045213;28;20028;-35
2024/01/29 05:23:34;;;;;;;4.57;2.47;;;1.20;99.90;;;0.31;100.00;98446.28;5044088;28;20040;-35
2024/01/29 05:26:00;;;;;;;5.03;3.10;;;1.20;99.90;;;0.32;100.00;98453.22;5044401;28;20036;-35
2024/01/29 05:28:25;;;;;;;5.20;3.17;;;1.20;99.90;;;0.32;100.00;98451.50;5044978;28;20250;-35
2024/01/29 05:30:51;;;;;;;6.10;3.28;;;1.20;99.90;;;0.29;100.00;98437.59;5043123;28;20934;-35
2024/01/29 05:33:17;;;;;;;6.47;3.55;;;1.30;99.90;;;0.35;100.00;98448.97;5045855;28;20024;-35
2024/01/29 05:35:43;;;;;;;7.55;4.20;;;1.30;99.90;;;0.42;100.00;98459.47;5049219;28;20072;-35
2024/01/29 05:38:09;;;;;;;9.77;4.72;;;1.30;99.90;;;0.32;100.00;98445.44;5049028;28;20260;-35
2024/01/29 05:40:35;;;;;;;8.15;4.68;;;1.30;99.90;;;0.36;100.00;98455.91;5041024;28;20033;-35
2024/01/29 05:43:00;;;;;;;10.55;5.15;;;1.30;99.90;;;0.34;100.00;98460.19;5052065;28;20095;-35
2024/01/29 05:45:26;;;;;;;8.45;5.20;;;1.20;99.90;;;0.32;100.00;98459.28;5052044;28;20738;-35
2024/01/29 05:47:52;;;;;;;10.00;5.47;;;1.20;99.90;;;0.32;100.00;98458.41;5053891;28;20074;-35
2024/01/29 05:50:17;;;;;;;9.48;5.50;;;1.20;99.90;;;0.29;100.00;98453.16;5050760;28;20637;-35
2024/01/29 05:52:43;;;;;;;9.90;6.00;;;1.20;99.90;;;0.27;100.00;98457.44;5049437;28;20223;-35
2024/01/29 05:55:09;;;;;;;8.88;5.43;;;1.20;99.90;;;0.23;100.00;98466.00;5040949;28;20037;-35
2024/01/29 05:57:35;;;;;;;8.15;5.55;;;1.10;99.90;;;0.19;100.00;98463.34;5045589;28;20031;-35
2024/01/29 06:00:06;;;;;;;8.90;5.40;;;1.10;99.90;;;0.07;100.00;98455.31;5031321;28;20033;-35
2024/01/29 06:02:32;;;;;;;11.05;5.45;;;1.10;99.90;;;0.14;100.00;98467.56;5039375;28;20676;-35
2024/01/29 06:04:57;;;;;;;9.02;5.20;;;1.00;99.90;;;0.09;100.00;98465.69;5050873;28;20029;-36
2024/01/29 06:07:23;;;;;;;8.82;4.90;;;1.00;99.90;;;-0.08;100.00;98442.88;5057603;28;20035;-35
2024/01/29 06:09:49;;;;;;;10.32;5.63;;;0.90;99.90;;;0.03;100.00;98471.63;5056377;28;20078;-35
2024/01/29 06:12:14;;;;;;;8.27;4.95;;;0.90;99.90;;;0.02;100.00;98463.81;5053337;28;20317;-35
2024/01/29 06:14:40;;;;;;;9.55;5.25;;;0.90;99.90;;;0.03;100.00;98463.84;5057740;28;20063;-35
2024/01/29 06:17:06;;;;;;;9.93;5.00;;;0.90;99.90;;;-0.01;100.00;98468.09;5056948;28;20279;-35
2024/01/29 06:19:31;;;;;;;8.52;4.80;;;0.90;99.90;;;-0.02;100.00;98468.94;5054760;28;20033;-35
2024/01/29 06:21:57;;;;;;;8.68;5.13;;;0.90;99.90;;;-0.05;100.00;98471.47;5056449;28;20025;-35
2024/01/29 06:24:23;;;;;;;9.50;5.15;;;0.80;99.90;;;-0.06;100.00;98466.25;5068822;22;20044;-37
2024/01/29 06:26:48;;;;;;;7.32;4.65;;;0.90;99.90;;;-0.09;100.00;98464.47;5030024;28;20471;-37
2024/01/29 06:29:14;;;;;;;7.68;4.07;;;0.90;99.90;;;-0.06;100.00;98472.28;5026630;28;20043;-37
2024/01/29 06:31:40;;;;;;;7.90;4.72;;;0.80;99.90;;;-0.13;100.00;98456.56;5029845;28;20150;-37
2024/01/29 06:34:06;;;;;;;6.28;4.00;;;0.90;99.90;;;-0.06;100.00;98477.47;5029956;28;20533;-37
2024/01/29 06:36:32;;;;;;;7.03;3.90;;;0.80;99.90;;;-0.07;100.00;98474.84;5028292;28;20032;-37
2024/01/29 06:38:58;;;;;;;6.88;4.03;;;0.80;99.90;;;-0.08;100.00;98473.13;5034924;28;20083;-37
2024/01/29 06:41:26;;;;;;;8.25;4.00;;;0.80;99.90;;;-0.18;100.00;98453.00;5030112;28;20032;-36
2024/01/29 06:43:53;;;;;;;7.97;3.38;;;0.80;99.90;;;-0.06;100.00;98468.84;5028850;28;20021;-37
2024/01/29 06:46:19;;;;;;;8.48;3.80;;;0.80;99.90;;;-0.13;100.00;98460.03;5030735;28;20435;-38
2024/01/29 06:48:45;;;;;;;7.97;3.53;;;0.80;99.90;;;-0.08;100.00;98471.38;5031920;28;20043;-37
2024/01/29 06:51:12;;;;;;;7.55;3.72;;;0.80;99.90;;;-0.11;100.00;98465.25;5028638;28;20033;-37
2024/01/29 06:53:38;;;;;;;5.95;3.75;;;0.80;99.90;;;0.01;100.00;98475.91;5031663;28;20039;-37
2024/01/29 06:56:05;;;;;;;6.07;3.70;;;0.90;99.90;;;0.01;100.00;98475.91;5033154;28;20025;-37
2024/01/29 06:58:45;;;;;;;6.18;3.60;;;0.90;99.90;;;0.06;100.00;98482.09;5038593;28;20036;-37
2024/01/29 07:01:11;;;;;;;5.40;3.50;;;0.90;99.90;;;0.02;100.00;98472.50;5033321;28;20231;-37
2024/01/29 07:03:37;;;;;;;8.25;4.15;;;1.00;99.90;;;0.10;100.00;98489.06;5034259;28;20034;-37
2024/01/29 07:06:03;;;;;;;9.23;4.07;;;1.00;99.90;;;0.11;100.00;98484.78;5030680;28;20083;-36
2024/01/29 07:08:28;;;;;;;7.47;4.00;;;1.00;99.90;;;0.12;100.00;98487.38;5034708;28;20056;-36
2024/01/29 07:10:54;;;;;;;8.40;4.28;;;1.00;99.90;;;0.11;100.00;98490.84;5034110;28;20037;-36
2024/01/29 07:13:20;;;;;;;8.43;4.28;;;1.10;99.90;;;0.18;100.00;98497.06;5035900;28;20037;-36
2024/01/29 07:15:46;;;;;;;8.70;4.72;;;1.10;99.90;;;0.20;100.00;98500.56;5030704;28;20063;-36
2024/01/29 07:18:11;;;;;;;8.55;4.50;;;1.10;99.90;;;0.25;100.00;98500.63;5027096;28;20280;-36
2024/01/29 07:20:42;;;;;;;9.30;4.50;;;1.20;99.90;;;0.29;100.00;98505.06;5024378;28;20756;-36
2024/01/29 07:23:09;;;;;;;8.38;4.85;;;1.20;99.90;;;0.38;100.00;98511.31;5030589;28;20109;-36
2024/01/29 07:25:35;;;;;;;10.00;4.40;;;1.30;99.90;;;0.42;100.00;98512.25;5030863;28;20041;-36
2024/01/29 07:28:04;;;;;;;8.82;4.45;;;1.30;99.90;;;0.50;100.00;98504.63;5028943;28;20515;-36
2024/01/29 07:30:31;;;;;;;7.00;3.90;;;1.40;99.90;;;0.59;100.00;98511.72;5031695;28;20068;-36
2024/01/29 07:32:57;;;;;;;6.70;4.25;;;1.50;99.90;;;0.67;100.00;98511.03;5029487;28;20035;-36
2024/01/29 07:35:23;;;;;;;7.88;3.63;;;1.60;99.90;;;0.75;100.00;98518.97;5032662;28;20035;-36
2024/01/29 07:37:49;;;;;;;8.05;4.32;;;1.60;99.90;;;0.82;100.00;98515.66;5030169;28;20033;-36
2024/01/29 07:40:15;;;;;;;8.27;4.15;;;1.70;99.90;;;0.77;100.00;98496.50;5031515;28;20037;-36
2024/01/29 07:42:40;;;;;;;6.13;3.83;;;1.80;99.90;;;0.94;100.00;98512.44;5031929;28;20063;-36
2024/01/29 07:45:06;;;;;;;6.32;4.25;;;1.80;99.90;;;1.05;100.00;98512.63;5029231;28;20043;-36
2024/01/29 07:47:32;;;;;;;8.32;3.75;;;1.90;99.90;;;1.08;100.00;98508.38;5037573;28;20071;-36
2024/01/29 07:49:58;;;;;;;9.50;4.40;;;2.00;99.90;;;1.15;100.00;98509.38;5028306;28;20155;-36
2024/01/29 07:52:24;;;;;;;6.88;3.97;;;2.00;99.90;;;1.10;100.00;98491.09;5032774;28;20043;-36
2024/01/29 07:54:49;;;;;;;7.28;3.78;;;2.10;99.90;;;1.23;100.00;98499.97;5027106;28;20075;-36
2024/01/29 07:57:15;;;;;;;6.47;3.70;;;2.10;99.90;;;1.34;100.00;98519.22;5032387;28;20037;-36
2024/01/29 07:59:41;;;;;;;6.78;4.13;;;2.20;99.90;;;1.40;100.00;98526.28;5028988;28;20037;-36
2024/01/29 08:02:09;;;;;;;7.82;4.05;;;2.20;99.90;;;1.28;100.00;98494.88;5031035;28;20047;-36
2024/01/29 08:04:34;;;;;;;7.68;3.78;;;2.30;99.90;;;1.51;100.00;98529.94;5031402;28;20098;-36
2024/01/29 08:07:01;;;;;;;6.32;4.07;;;2.40;99.90;;;1.54;100.00;98526.50;5032597;28;20443;-36
2024/01/29 08:09:26;;;;;;;8.27;4.05;;;2.40;99.90;;;1.55;100.00;98522.19;5029942;28;21425;-37
2024/01/29 08:11:52;;;;;;;8.55;4.53;;;2.40;99.90;;;1.62;100.00;98524.91;5027732;28;20445;-37
2024/01/29 08:14:18;;;;;;;7.43;4.07;;;2.50;99.90;;;1.43;100.00;98497.72;5029000;28;20029;-38
2024/01/29 08:16:43;;;;;;;8.20;4.55;;;2.50;99.90;;;1.68;100.00;98532.81;5029025;28;20120;-37
2024/01/29 08:19:09;;;;;;;6.25;4.18;;;2.60;99.90;;;1.63;100.00;98516.25;5030206;28;20079;-37
2024/01/29 08:21:35;;;;;;;8.15;3.88;;;2.60;99.90;;;1.77;100.00;98536.41;5032356;28;20385;-37
2024/01/29 08:24:02;;;;;;;8.98;4.18;;;2.60;99.90;;;1.85;100.00;98543.50;5029005;28;20080;-37
2024/01/29 08:26:29;;;;;;;7.15;4.32;;;2.70;99.90;;;1.86;100.00;98536.56;5027704;28;20118;-37
2024/01/29 08:28:55;;;;;;;8.05;4.13;;;2.70;99.90;;;1.90;100.00;98540.94;5026609;28;20031;-37
2024/01/29 08:31:20;;;;;;;9.77;4.72;;;2.80;99.90;;;1.95;100.00;98546.25;5029000;28;20029;-36
2024/01/29 08:33:46;;;;;;;8.02;4.45;;;2.80;99.90;;;1.91;100.00;98542.72;5030491;28;20436;-36
2024/01/29 08:36:13;;;;;;;6.03;4.03;;;2.80;99.90;;;2.00;100.00;98561.06;5030653;28;20044;-36
2024/01/29 08:38:41;;;;;;;7.40;4.13;;;2.90;99.90;;;1.98;100.00;98546.28;5030457;28;20041;-37
2024/01/29 08:41:08;;;;;;;7.32;4.20;;;2.90;99.90;;;1.90;100.00;98535.75;5030764;28;20306;-37
2024/01/29 08:43:33;;;;;;;8.50;4.85;;;3.00;99.90;;;2.12;100.00;98559.50;5027579;28;20051;-37
2024/01/29 08:46:00;;;;;;;7.10;4.35;;;3.00;99.90;;;2.14;100.00;98557.81;5030096;28;20750;-37
2024/01/29 08:48:26;;;;;;;8.90;4.40;;;3.00;99.90;;;2.15;100.00;98554.34;5033173;28;20024;-37
2024/01/29 08:50:51;;;;;;;8.30;4.20;;;3.10;99.90;;;2.18;100.00;98557.88;5022481;28;20497;-37
2024/01/29 08:53:17;;;;;;;10.48;4.80;;;3.10;99.90;;;2.07;100.00;98538.63;5029647;28;20451;-37
2024/01/29 08:55:43;;;;;;;10.35;4.57;;;3.10;99.90;;;2.14;100.00;98547.41;5025826;28;20111;-37
2024/01/29 08:58:08;;;;;;;9.55;4.50;;;3.10;99.90;;;2.29;100.00;98568.44;5030021;28;20040;-37
2024/01/29 09:00:34;;;;;;;7.68;4.47;;;3.20;99.90;;;2.37;100.00;98569.44;5029170;28;20043;-37
2024/01/29 09:03:00;;;;;;;7.72;4.93;;;3.30;99.90;;;2.46;100.00;98573.91;5030107;28;20037;-37
2024/01/29 09:05:25;;;;;;;7.68;4.60;;;3.30;99.90;;;2.55;100.00;98571.44;5028535;28;20363;-37
2024/01/29 09:07:52;;;;;;;6.78;4.07;;;3.40;99.90;;;2.60;100.00;98561.06;5025819;28;20539;-37
2024/01/29 09:10:18;;;;;;;10.18;5.18;;;3.50;99.90;;;2.74;100.00;98572.53;5026629;28;20052;-37
2024/01/29 09:12:43;;;;;;;7.10;4.47;;;3.60;99.90;;;2.85;100.00;98577.88;5032294;28;20409;-37
2024/01/29 09:15:09;;;;;;;7.05;4.40;;;3.70;99.90;;;2.91;100.00;98571.88;5027211;28;20044;-37
2024/01/29 09:17:36;;;;;;;7.40;4.25;;;3.80;99.90;;;2.93;100.00;98565.84;5028315;28;20028;-37
2024/01/29 09:20:06;;;;;;;9.73;4.60;;;3.80;99.90;;;3.05;100.00;98579.03;5043140;28;20041;-37
2024/01/29 09:22:32;;;;;;;9.02;4.80;;;3.90;99.90;;;3.07;100.00;98576.44;5029790;28;20029;-37
2024/01/29 09:24:57;;;;;;;7.88;4.43;;;4.00;99.90;;;3.16;100.00;98575.63;5027087;28;20024;-38
2024/01/29 09:27:23;;;;;;;10.50;5.10;;;4.00;99.90;;;3.25;100.00;98584.47;5028293;28;20052;-37
2024/01/29 09:29:49;;;;;;;8.77;4.78;;;4.10;99.90;;;3.34;100.00;98586.28;5029579;28;20409;-37
2024/01/29 09:32:15;;;;;;;7.47;4.65;;;4.20;99.90;;;3.37;100.00;98588.91;5030126;28;20029;-37
2024/01/29 09:34:40;;;;;;;8.88;4.70;;;4.20;99.90;;;3.42;100.00;98592.44;5033532;28;20043;-37
2024/01/29 09:37:06;;;;;;;9.98;4.40;;;4.30;99.90;;;3.51;100.00;98591.69;5027219;28;20025;-37
2024/01/29 09:39:32;;;;;;;7.20;4.53;;;4.40;99.90;;;3.59;100.00;98602.22;5028704;28;20492;-37
2024/01/29 09:42:04;;;;;;;6.53;4.28;;;4.50;99.90;;;3.63;100.00;98589.19;5034448;28;20037;-37
2024/01/29 09:44:38;;;;;;;7.10;4.28;;;4.50;99.90;;;3.81;100.00;98600.69;5034946;28;20035;-37
2024/01/29 09:47:05;;;;;;;6.82;4.18;;;4.60;99.90;;;3.91;100.00;98599.91;5027220;28;20547;-37
2024/01/29 09:49:36;;;;;;;13.85;4.80;;;4.80;99.90;;;4.03;100.00;98601.72;5033076;28;20037;-37
2024/01/29 09:52:04;;;;;;;8.38;4.70;;;4.80;99.90;;;4.14;100.00;98601.81;5034446;28;20044;-36
2024/01/29 09:54:33;;;;;;;6.90;4.55;;;5.00;99.90;;;4.26;100.00;98612.38;5032987;28;20041;-36
2024/01/29 09:56:59;;;;;;;7.55;4.55;;;5.10;99.90;;;4.35;100.00;98607.19;5025469;28;20048;-36
2024/01/29 09:59:25;;;;;;;8.07;4.63;;;5.20;99.90;;;4.44;100.00;98611.63;5031934;28;20390;-36
2024/01/29 10:01:52;;;;;;;8.40;5.03;;;5.30;99.90;;;4.52;100.00;98611.66;5031206;28;20061;-36
2024/01/29 10:04:19;;;;;;;8.90;5.10;;;5.40;99.90;;;4.63;100.00;98615.25;5030583;28;20240;-36
2024/01/29 10:06:44;;;;;;;8.52;4.88;;;5.40;99.90;;;4.69;100.00;98619.63;5034597;28;20390;-37
2024/01/29 10:09:11;;;;;;;9.38;4.95;;;5.50;99.90;;;4.78;100.00;98625.78;5032545;28;20029;-36
2024/01/29 10:11:39;;;;;;;9.90;5.00;;;5.60;99.90;;;4.87;100.00;98624.09;5033783;28;20121;-36
2024/01/29 10:14:06;;;;;;;8.63;5.20;;;5.60;99.90;;;4.92;100.00;98617.16;5030836;28;20044;-37
2024/01/29 10:16:32;;;;;;;8.60;5.15;;;5.70;99.90;;;4.97;100.00;98616.31;5033215;28;20575;-36
2024/01/29 10:18:59;;;;;;;9.45;5.20;;;5.80;99.90;;;5.04;100.00;98611.94;5032632;28;20044;-36
2024/01/29 10:21:25;;;;;;;6.60;4.57;;;5.80;99.90;;;5.11;100.00;98616.34;5024910;28;20032;-36